Nearby METAR Reports

 

KBFI - Boeing Field Seattle, WA, USA
Distance from station: SE 4mi, 7km
Updated: Sat, 22-Sep-2018 2:53am PDT
Light rain, Mostly cloudy
Light rain, Mostly cloudy
 Wind from S
Wind: S 9 mph , 15 km/h
Temperature: 63°F , 17°C
Dew Point: 55°F , 13°C
Humidity: 77%
Barometer: 29.86 inHg , 1011.2 hPa
Summary: Light rain
Clouds: Mostly cloudy
Visibility: 8 miles , 13 km
Cloud details: Few Clouds 2000 ft
Mostly cloudy 4500 ft
Mostly cloudy 6000 ft
2018/09/22 09:53 KBFI 220953Z 18008KT 8SM -RA FEW020 BKN045 BKN060 17/13 A2986 RMK AO2 RAB39 SLP112 P0001 T01670128
KSEA - Seattle/Metro, WA, USA
Distance from station: NE 5mi, 8km
Updated: Sat, 22-Sep-2018 2:53am PDT
Overcast
Overcast
 Wind from S
Wind: S 12 mph , 19 km/h
Temperature: 63°F , 17°C
Dew Point: 54°F , 12°C
Humidity: 73%
Barometer: 29.87 inHg , 1011.5 hPa
Clouds: Overcast
Visibility: 10 miles , 16 km
Cloud details: Few Clouds 2000 ft
Mostly cloudy 4500 ft
Overcast 6000 ft
2018/09/22 09:53 KSEA 220953Z 19010KT 10SM FEW020 BKN045 OVC060 17/12 A2987 RMK AO2 SLP120 T01670122
 
KTIW - Tacoma, WA, USA
Distance from station: S 30mi, 45km
Updated: Sat, 22-Sep-2018 2:53am PDT
Mostly cloudy
Mostly cloudy
 Wind from S
Wind: S 10 mph , 17 km/h
Temperature: 59°F , 15°C
Dew Point: 54°F , 12°C
Humidity: 82%
Barometer: 29.87 inHg , 1011.5 hPa
Clouds: Mostly cloudy
Visibility: 10 miles , 16 km
Cloud details: Partly cloudy 3800 ft
Partly cloudy 4500 ft
Mostly cloudy 5000 ft
2018/09/22 09:53 KTIW 220953Z AUTO 17009KT 10SM SCT038 SCT045 BKN050 15/12 A2987 RMK AO2 SLP112 T01500122
KCLM - Port Angeles, WA, USA
Distance from station: NW 70mi, 100km
Updated: Sat, 22-Sep-2018 2:53am PDT
Overcast
Overcast
 Wind from calm
Wind: Calm
Temperature: 55°F , 13°C
Dew Point: 54°F , 12°C
Humidity: 94%
Barometer: 29.80 inHg , 1009.1 hPa
Clouds: Overcast
Visibility: 9 miles , 14 km
Cloud details: Few Clouds 2500 ft
Mostly cloudy 6000 ft
Overcast 7000 ft
2018/09/22 09:53 KCLM 220953Z AUTO 00000KT 9SM FEW025 BKN060 OVC070 13/12 A2980 RMK AO2 SLP091 T01280122